Aérodrome :
LOGIN :

S'inscrire | Disclaimer

   EN    FR    IT 

 










Légende :    VFR   VFR Marginal   IFR   IFR Intensif   IFR Très Intensif
Visi : 
Plafond : 
>= 8 km
>= 3000ft
5 à 8 km
1000 à 3000 ft
1500m à 5 km
500 à 1000 ft
800 à 1500m
200 à 500 ft
< 800m
< 200 ft
Symboles :   Orages  Brouillard  Fortes neiges  Fortes précipitations  Vent > 20 kt
SIGMETs :   Divers  Orages  Givrage  Turbulence  Onde Orograph.  Cendres Volcan.






- Altitude de l'aérodrome : 1682 ft
- Code IATA : VIT


LEVT - Vitoria Gasteiz

DERNIER METAR :
  • 190130Z 00000KT 9000 OVC035 11/10 Q1022

METARs EXPIRÉS :
  • 190100Z 22004KT 190V250 9000 OVC030 11/10 Q1022
  • 190030Z VRB01KT 9999 BKN040 11/10 Q1022
  • 190000Z VRB01KT 9999 SCT040 11/09 Q1021
  • 182330Z 25001KT 9999 FEW050 11/09 Q1021
  • 182300Z 03001KT 9999 SCT060 11/09 Q1021

TAF TAF LEVT
Valide du 19 à 00h jusqu'au 20 à 00h UTC


182300Z 1900/1924 22006KT 9999 FEW020 SCT030 TX18/1914Z TN09/1906Z
PROB40
TEMPO 1900/1909 BKN010
PROB30
TEMPO 1900/1906 3000 BR BKN010
TEMPO 1912/1918 35010KT



MET'MAP, la Météo Aéronautique d'un coup d'oeil ! - Copyright ORBIFLY Décembre 2007 - Disclaimer

ORBIFLY MET'MAP TEAM :

Programmation & Développement : Alexandra Zaïnal
Sur une idée originale de : Baudouin d'Aumeries
Assistance à la programmation : Marc-Olivier Méhu
Soutien technique & logistique : Manuel Goepfert

Contact : metmap@orbifly.com




SOURCES & CREDITS :

   NOAA